createdAt,value
2023-02-04T00:00:01.132Z,3.0972222222222223
2023-02-04T00:01:01.116Z,1.1916666666666667
2023-02-04T00:02:01.056Z,1.4694444444444443
2023-02-04T00:03:01.260Z,1.0333333333333334
2023-02-04T00:04:01.149Z,1.4694444444444443
2023-02-04T00:05:01.443Z,0.9944444444444445
2023-02-04T00:06:02.397Z,0.675
2023-02-04T00:07:01.178Z,1.1111111111111112
2023-02-04T00:08:01.089Z,1.3111111111111111
2023-02-04T00:09:01.111Z,0.5166666666666667
2023-02-04T00:10:01.792Z,0.7138888888888888
2023-02-04T00:11:01.078Z,1.7472222222222222
2023-02-04T00:12:01.099Z,0.4361111111111111
2023-02-04T00:13:01.370Z,1.9861111111111112
2023-02-04T00:14:01.686Z,3.261111111111111
2023-02-04T00:15:01.759Z,1.152777777777778
2023-02-04T00:16:01.879Z,0.5972222222222222
2023-02-04T00:17:01.144Z,1.3111111111111111
2023-02-04T00:18:01.844Z,0.9527777777777778
2023-02-04T00:19:01.206Z,0.675
2023-02-04T00:20:01.046Z,1.1916666666666667
2023-02-04T00:21:01.328Z,1.1111111111111112
2023-02-04T00:22:01.579Z,0.2833333333333333
2023-02-04T00:23:02.166Z,0.5555555555555556
2023-02-04T00:24:01.291Z,1.5083333333333333
2023-02-04T00:25:08.030Z,1.3722222222222222
2023-02-04T00:26:01.080Z,0.5166666666666667
2023-02-04T00:27:01.237Z,1.0722222222222222
2023-02-04T00:28:01.245Z,1.9055555555555557
2023-02-04T00:29:01.109Z,0.8333333333333333
2023-02-04T00:30:01.115Z,0.5555555555555556
2023-02-04T00:31:01.547Z,1.0999999999999999
2023-02-04T00:32:01.272Z,1.55
2023-02-04T00:33:02.297Z,0.4361111111111111
2023-02-04T00:34:01.154Z,1.2305555555555554
2023-02-04T00:35:01.132Z,0.5972222222222222
2023-02-04T00:36:01.155Z,0.8555555555555555
2023-02-04T00:37:01.165Z,0.3972222222222222
2023-02-04T00:38:01.619Z,1.597222222222222
2023-02-04T00:39:01.079Z,0.5972222222222222
2023-02-04T00:40:01.079Z,1.9861111111111112
2023-02-04T00:41:01.080Z,1.452777777777778
2023-02-04T00:42:01.086Z,0.3972222222222222
2023-02-04T00:43:01.084Z,0.5166666666666667
2023-02-04T00:44:01.081Z,1.3111111111111111
2023-02-04T00:45:01.320Z,1.5888888888888888
2023-02-04T00:46:02.203Z,1.9861111111111112
2023-02-04T00:47:01.061Z,1.3111111111111111
2023-02-04T00:48:01.132Z,1.55
2023-02-04T00:49:01.137Z,1.0333333333333334
2023-02-04T00:50:01.339Z,0.47777777777777775
2023-02-04T00:51:01.851Z,1.0333333333333334
2023-02-04T00:52:01.577Z,1.2722222222222221
2023-02-04T00:53:01.174Z,1.6277777777777778
2023-02-04T00:54:01.170Z,1.1111111111111112
2023-02-04T00:55:01.165Z,0.875
2023-02-04T00:56:05.490Z,1.3916666666666666
2023-02-04T00:57:01.453Z,0.5527777777777778
2023-02-04T00:58:01.098Z,1.0722222222222222
2023-02-04T00:59:01.065Z,0.47777777777777775
2023-02-04T01:00:01.094Z,0.35833333333333334
2023-02-04T01:01:08.564Z,0.9972222222222221
2023-02-04T01:02:01.124Z,0.7944444444444444
2023-02-04T01:03:02.014Z,0.9527777777777778
2023-02-04T01:04:01.864Z,1.3916666666666666
2023-02-04T01:05:01.131Z,0.47777777777777775
2023-02-04T01:06:11.253Z,1.425
2023-02-04T01:07:02.067Z,0.6805555555555556
2023-02-04T01:08:01.391Z,1.0333333333333334
2023-02-04T01:09:01.164Z,1.0083333333333333
2023-02-04T01:10:01.331Z,1.2722222222222221
2023-02-04T01:11:14.317Z,1.9555555555555555
2023-02-04T01:12:05.153Z,0.9166666666666666
2023-02-04T01:13:01.088Z,0.875
2023-02-04T01:14:01.091Z,0.7555555555555555
2023-02-04T01:15:01.154Z,1.5888888888888888
2023-02-04T01:16:16.741Z,0.7444444444444445
2023-02-04T01:17:02.404Z,0.3416666666666667
2023-02-04T01:18:01.164Z,1.35
2023-02-04T01:19:01.120Z,1.15
2023-02-04T01:20:01.107Z,1.5083333333333333
2023-02-04T01:21:01.137Z,0.675
2023-02-04T01:22:01.391Z,1.4305555555555556
2023-02-04T01:23:01.291Z,0.2777777777777778
2023-02-04T01:24:01.539Z,2.2138888888888886
2023-02-04T01:25:01.169Z,1.2527777777777778
2023-02-04T01:26:01.148Z,0.8333333333333333
2023-02-04T01:27:01.156Z,1.4305555555555556
2023-02-04T01:28:01.164Z,0.5555555555555556
2023-02-04T01:29:01.154Z,1.1916666666666667
2023-02-04T01:30:01.114Z,0.5166666666666667
2023-02-04T01:31:01.189Z,0.3972222222222222
2023-02-04T01:32:01.570Z,1.2083333333333333
2023-02-04T01:33:01.095Z,1.2722222222222221
2023-02-04T01:34:01.062Z,0.8972222222222221
2023-02-04T01:35:01.066Z,2.172222222222222
2023-02-04T01:36:01.067Z,0.47777777777777775
2023-02-04T01:37:01.135Z,0.9944444444444445
2023-02-04T01:38:01.172Z,1.0333333333333334
2023-02-04T01:39:00.822Z,1.6277777777777778
2023-02-04T01:40:00.642Z,1.3111111111111111
2023-02-04T01:41:00.471Z,1.7083333333333335
2023-02-04T01:42:00.135Z,0.3972222222222222
2023-02-04T01:42:59.858Z,1.9472222222222222
2023-02-04T01:44:01.555Z,1.5611111111111111
2023-02-04T01:45:01.287Z,1.1027777777777779
2023-02-04T01:46:02.074Z,0.675
2023-02-04T01:47:01.091Z,1.0722222222222222
2023-02-04T01:48:01.513Z,0.7527777777777778
2023-02-04T01:49:01.108Z,0.9138888888888889
2023-02-04T01:50:01.111Z,1.7472222222222222
2023-02-04T01:51:01.104Z,0.9527777777777778
2023-02-04T01:52:01.116Z,1.1916666666666667
2023-02-04T01:53:01.146Z,1.152777777777778
2023-02-04T01:54:01.132Z,1.3111111111111111
2023-02-04T01:55:01.155Z,0.5166666666666667
2023-02-04T01:56:01.060Z,0.7944444444444444
2023-02-04T01:57:01.145Z,0.47777777777777775
2023-02-04T01:58:01.156Z,1.152777777777778
2023-02-04T01:59:01.552Z,0.5805555555555555
2023-02-04T02:00:01.288Z,0.31666666666666665
2023-02-04T02:01:01.128Z,0.4361111111111111
2023-02-04T02:02:01.112Z,0.675
2023-02-04T02:03:01.110Z,1.152777777777778
2023-02-04T02:04:00.764Z,1.4305555555555556
2023-02-04T02:05:00.376Z,1.4305555555555556
2023-02-04T02:05:59.962Z,1.35
2023-02-04T02:06:59.549Z,1.1138888888888887
2023-02-04T02:08:01.155Z,1.1111111111111112
2023-02-04T02:09:01.128Z,0.875
2023-02-04T02:10:01.147Z,0.675
2023-02-04T02:11:01.303Z,1.2305555555555554
2023-02-04T02:12:02.577Z,0.9333333333333332
2023-02-04T02:13:01.056Z,0.9527777777777778
2023-02-04T02:14:01.464Z,0.8472222222222221
2023-02-04T02:15:01.172Z,0.3972222222222222
2023-02-04T02:16:02.360Z,0.47777777777777775
2023-02-04T02:17:01.282Z,0.6138888888888888
2023-02-04T02:18:00.725Z,1.0722222222222222
2023-02-04T02:19:01.133Z,0.5166666666666667
2023-02-04T02:20:01.113Z,0.675
2023-02-04T02:21:01.932Z,1.152777777777778
2023-02-04T02:22:01.226Z,0.8861111111111111
2023-02-04T02:23:01.243Z,0.6361111111111111
2023-02-04T02:24:01.883Z,0.49722222222222223
2023-02-04T02:25:01.261Z,0.5972222222222222
2023-02-04T02:26:01.133Z,0.31666666666666665
2023-02-04T02:27:01.063Z,0.5527777777777778
2023-02-04T02:28:01.184Z,0.5972222222222222
2023-02-04T02:29:01.142Z,0.5555555555555556
2023-02-04T02:30:01.144Z,0.23888888888888887
2023-02-04T02:31:01.147Z,0.5166666666666667
2023-02-04T02:32:01.382Z,0.4805555555555555
2023-02-04T02:33:03.862Z,0.5499999999999999
2023-02-04T02:34:01.065Z,0.2777777777777778
2023-02-04T02:35:01.061Z,0.11944444444444444
2023-02-04T02:36:01.086Z,0.15833333333333333
2023-02-04T02:37:03.432Z,0.35555555555555557
2023-02-04T02:38:01.173Z,1.1111111111111112
2023-02-04T02:39:01.107Z,0.5166666666666667
2023-02-04T02:40:01.109Z,0.9527777777777778
2023-02-04T02:41:01.073Z,0.47777777777777775
2023-02-04T02:42:06.159Z,0.18333333333333335
2023-02-04T02:43:01.515Z,0.7055555555555556
2023-02-04T02:44:01.255Z,0.2777777777777778
2023-02-04T02:45:01.258Z,0.15833333333333333
2023-02-04T02:46:01.253Z,0.15833333333333333
2023-02-04T02:47:08.217Z,0.34444444444444444
2023-02-04T02:48:01.159Z,0.7555555555555555
2023-02-04T02:49:01.060Z,0.5027777777777778
2023-02-04T02:50:01.155Z,0.35833333333333334
2023-02-04T02:51:01.150Z,0.31666666666666665
2023-02-04T02:52:11.878Z,0.6277777777777777
2023-02-04T02:53:01.105Z,0.4361111111111111
2023-02-04T02:54:01.084Z,1.0333333333333334
2023-02-04T02:55:01.760Z,0.31666666666666665
2023-02-04T02:56:01.071Z,0.23888888888888887
2023-02-04T02:57:13.958Z,0.36944444444444446
2023-02-04T02:58:01.790Z,0.7944444444444444
2023-02-04T02:59:01.449Z,0.2777777777777778
2023-02-04T03:00:02.059Z,0.2777777777777778
2023-02-04T03:01:01.169Z,0.3972222222222222
2023-02-04T03:02:16.398Z,0.9833333333333333
2023-02-04T03:03:02.693Z,0.9277777777777777
2023-02-04T03:04:02.590Z,0.5555555555555556
2023-02-04T03:05:01.518Z,0.7555555555555555
2023-02-04T03:06:01.200Z,0.9944444444444445
2023-02-04T03:07:01.070Z,0.9944444444444445
2023-02-04T03:08:01.090Z,0.5972222222222222
2023-02-04T03:09:00.684Z,0.9138888888888889
2023-02-04T03:10:00.257Z,0.875
2023-02-04T03:10:59.943Z,0.5972222222222222
2023-02-04T03:11:59.764Z,0.23888888888888887
2023-02-04T03:13:01.523Z,0.4111111111111111
2023-02-04T03:14:00.898Z,0.11944444444444444
2023-02-04T03:15:01.093Z,0.47777777777777775
2023-02-04T03:16:01.423Z,0.6361111111111111
2023-02-04T03:17:02.052Z,0.19999999999999998
2023-02-04T03:18:01.191Z,0.19999999999999998
2023-02-04T03:19:01.162Z,0.23888888888888887
2023-02-04T03:20:01.148Z,0.5777777777777778
2023-02-04T03:21:01.165Z,0.7944444444444444
2023-02-04T03:22:01.073Z,0.5166666666666667
2023-02-04T03:23:01.077Z,0.35833333333333334
2023-02-04T03:24:01.085Z,0.47777777777777775
2023-02-04T03:25:01.096Z,0.8944444444444445
2023-02-04T03:26:01.078Z,0.4361111111111111
2023-02-04T03:27:01.207Z,0.19999999999999998
2023-02-04T03:28:01.130Z,1.4694444444444443
2023-02-04T03:29:01.066Z,0.2777777777777778
2023-02-04T03:30:01.151Z,0.23888888888888887
2023-02-04T03:31:01.628Z,0.4361111111111111
2023-02-04T03:32:01.652Z,0.3972222222222222
2023-02-04T03:33:01.321Z,0.5972222222222222
2023-02-04T03:34:02.066Z,0.8333333333333333
2023-02-04T03:35:02.053Z,0.5166666666666667
2023-02-04T03:36:01.671Z,0.2777777777777778
2023-02-04T03:37:01.170Z,0.5972222222222222
2023-02-04T03:38:01.074Z,0.5166666666666667
2023-02-04T03:39:01.077Z,1.2722222222222221
2023-02-04T03:40:01.493Z,0.5833333333333334
2023-02-04T03:41:01.217Z,0.3972222222222222
2023-02-04T03:42:01.377Z,0.19999999999999998
2023-02-04T03:43:01.109Z,0.5166666666666667
2023-02-04T03:44:01.941Z,0.6361111111111111
2023-02-04T03:45:01.110Z,0.3972222222222222
2023-02-04T03:46:01.191Z,0.2777777777777778
2023-02-04T03:47:01.555Z,0.19999999999999998
2023-02-04T03:48:01.078Z,0.5555555555555556
2023-02-04T03:49:01.092Z,0.3972222222222222
2023-02-04T03:50:01.465Z,0.24722222222222223
2023-02-04T03:51:01.148Z,0.19999999999999998
2023-02-04T03:52:01.158Z,0.5555555555555556
2023-02-04T03:53:01.173Z,0.2777777777777778
2023-02-04T03:54:01.167Z,0.5166666666666667
2023-02-04T03:55:01.165Z,0.19999999999999998
2023-02-04T03:56:01.069Z,0.675
2023-02-04T03:57:01.120Z,0.2777777777777778
2023-02-04T03:58:01.523Z,0.3472222222222222
2023-02-04T03:59:01.226Z,0.23888888888888887
2023-02-04T04:00:01.114Z,0.08055555555555555
2023-02-04T04:01:01.274Z,0.2777777777777778
2023-02-04T04:02:00.613Z,0.19999999999999998
2023-02-04T04:03:00.607Z,0.3194444444444444
2023-02-04T04:04:00.297Z,0.35833333333333334
2023-02-04T04:04:59.884Z,0.5166666666666667
2023-02-04T04:05:59.526Z,0.19999999999999998
2023-02-04T04:07:01.427Z,0.21388888888888888
2023-02-04T04:08:01.124Z,0.22222222222222224
2023-02-04T04:09:01.163Z,0.31666666666666665
2023-02-04T04:10:01.173Z,0.19999999999999998
2023-02-04T04:11:01.178Z,0.08055555555555555
2023-02-04T04:12:01.186Z,0.2972222222222222
2023-02-04T04:13:01.918Z,0.22222222222222224
2023-02-04T04:14:01.096Z,0.23888888888888887
2023-02-04T04:15:00.624Z,0.5166666666666667
2023-02-04T04:16:00.328Z,0.35833333333333334
2023-02-04T04:16:59.959Z,0.31666666666666665
2023-02-04T04:17:59.659Z,0.3277777777777778
2023-02-04T04:19:01.532Z,0.1527777777777778
2023-02-04T04:20:01.135Z,0.5166666666666667
2023-02-04T04:21:01.060Z,0.2777777777777778
2023-02-04T04:22:01.128Z,0.11944444444444444
2023-02-04T04:23:01.137Z,0.14722222222222223
2023-02-04T04:24:01.168Z,0.5555555555555556
2023-02-04T04:25:01.152Z,0.19999999999999998
2023-02-04T04:26:01.164Z,0.23888888888888887
2023-02-04T04:27:01.224Z,0.23888888888888887
2023-02-04T04:28:02.690Z,0.1611111111111111
2023-02-04T04:29:01.260Z,0.35833333333333334
2023-02-04T04:30:01.050Z,0.2777777777777778
2023-02-04T04:31:01.209Z,0.5972222222222222
2023-02-04T04:32:01.130Z,0.19999999999999998
2023-02-04T04:33:05.421Z,0.26944444444444443
2023-02-04T04:34:01.222Z,0.11944444444444444
2023-02-04T04:35:01.022Z,0.31666666666666665
2023-02-04T04:36:01.031Z,0.35833333333333334
2023-02-04T04:37:01.540Z,0.6166666666666667
2023-02-04T04:38:07.739Z,0.19722222222222222
2023-02-04T04:39:01.144Z,0.19999999999999998
2023-02-04T04:40:01.139Z,0.31666666666666665
2023-02-04T04:41:01.144Z,0.15833333333333333
2023-02-04T04:42:01.199Z,0.23888888888888887
2023-02-04T04:43:10.452Z,0.2833333333333333
2023-02-04T04:44:01.151Z,0.08055555555555555
2023-02-04T04:45:01.074Z,0.2777777777777778
2023-02-04T04:46:01.089Z,0.47777777777777775
2023-02-04T04:47:01.268Z,0.19999999999999998
2023-02-04T04:48:11.803Z,0.15833333333333333
2023-02-04T04:49:02.052Z,0.11944444444444444
2023-02-04T04:50:01.106Z,0.35833333333333334
2023-02-04T04:51:01.127Z,0.03888888888888889
2023-02-04T04:52:01.159Z,0.08055555555555555
2023-02-04T04:53:15.863Z,0.1611111111111111
2023-02-04T04:54:01.521Z,0.2833333333333333
2023-02-04T04:55:01.130Z,0.25833333333333336
2023-02-04T04:56:01.129Z,0.11944444444444444
2023-02-04T04:57:01.163Z,0.2777777777777778
2023-02-04T04:58:01.178Z,0.47777777777777775
2023-02-04T04:59:01.975Z,0.23888888888888887
2023-02-04T05:00:01.105Z,0.2777777777777778
2023-02-04T05:01:01.255Z,0.08055555555555555
2023-02-04T05:02:01.075Z,0.23888888888888887
2023-02-04T05:03:01.406Z,0.4361111111111111
2023-02-04T05:04:01.112Z,0.47777777777777775
2023-02-04T05:05:01.159Z,0.2972222222222222
2023-02-04T05:06:01.093Z,0.19999999999999998
2023-02-04T05:07:01.104Z,0.19999999999999998
2023-02-04T05:08:01.106Z,0.23888888888888887
2023-02-04T05:09:01.120Z,0.15833333333333333
2023-02-04T05:10:01.937Z,0
2023-02-04T05:11:01.219Z,0.03888888888888889
2023-02-04T05:12:01.242Z,0.11944444444444444
2023-02-04T05:13:01.556Z,0.11111111111111112
2023-02-04T05:14:01.168Z,0.03888888888888889
2023-02-04T05:15:01.164Z,0.03888888888888889
2023-02-04T05:16:01.200Z,0
2023-02-04T05:17:01.993Z,0.19999999999999998
2023-02-04T05:18:01.079Z,0.19999999999999998
2023-02-04T05:19:01.091Z,0.19999999999999998
2023-02-04T05:20:01.054Z,0.34444444444444444
2023-02-04T05:21:01.417Z,0.35833333333333334
2023-02-04T05:22:01.440Z,0.15833333333333333
2023-02-04T05:23:04.015Z,0.425
2023-02-04T05:24:01.065Z,0.19999999999999998
2023-02-04T05:25:01.068Z,0.18611111111111112
2023-02-04T05:26:01.140Z,0.19999999999999998
2023-02-04T05:27:01.146Z,0.15833333333333333
2023-02-04T05:28:02.043Z,0.15833333333333333
2023-02-04T05:29:01.374Z,0.2777777777777778
2023-02-04T05:30:02.548Z,0.18611111111111112
2023-02-04T05:31:01.323Z,0.15833333333333333
2023-02-04T05:32:04.240Z,0.19722222222222222
2023-02-04T05:33:02.097Z,0.2777777777777778
2023-02-04T05:34:01.087Z,0.35833333333333334
2023-02-04T05:35:01.098Z,0.11944444444444444
2023-02-04T05:36:01.086Z,0.4361111111111111
2023-02-04T05:37:01.097Z,0.15833333333333333
2023-02-04T05:38:01.136Z,0.03888888888888889
2023-02-04T05:39:01.573Z,0.15833333333333333
2023-02-04T05:40:01.120Z,0.14166666666666666
2023-02-04T05:41:01.129Z,0.08055555555555555
2023-02-04T05:42:01.218Z,0.19999999999999998
2023-02-04T05:43:01.135Z,0.31666666666666665
2023-02-04T05:44:01.149Z,0
2023-02-04T05:45:01.090Z,0.08055555555555555
2023-02-04T05:46:01.272Z,0.19999999999999998
2023-02-04T05:47:01.178Z,0.2777777777777778
2023-02-04T05:48:01.151Z,0.15833333333333333
2023-02-04T05:49:01.489Z,0.3194444444444444
2023-02-04T05:50:01.096Z,0.17777777777777778
2023-02-04T05:51:01.089Z,0.03888888888888889
2023-02-04T05:52:01.091Z,0.23888888888888887
2023-02-04T05:53:02.215Z,0.2777777777777778
2023-02-04T05:54:01.794Z,0.17777777777777778
2023-02-04T05:55:00.839Z,0.35833333333333334
2023-02-04T05:56:00.524Z,0.2777777777777778
2023-02-04T05:57:00.122Z,0.31666666666666665
2023-02-04T05:58:00.146Z,0.15833333333333333
2023-02-04T05:58:59.793Z,0.11111111111111112
2023-02-04T06:00:01.762Z,0.10833333333333334
2023-02-04T06:01:01.484Z,0.19999999999999998
2023-02-04T06:02:02.392Z,0.23888888888888887
2023-02-04T06:03:01.175Z,0
2023-02-04T06:04:00.922Z,0.19722222222222222
2023-02-04T06:05:00.597Z,0
2023-02-04T06:06:00.329Z,0.15833333333333333
2023-02-04T06:07:00.332Z,0
2023-02-04T06:08:00.061Z,0.08055555555555555
2023-02-04T06:08:59.763Z,0.011111111111111112
2023-02-04T06:10:01.384Z,0.19999999999999998
2023-02-04T06:11:01.103Z,0
2023-02-04T06:12:01.140Z,0.11944444444444444
2023-02-04T06:13:01.114Z,0.5166666666666667
2023-02-04T06:14:01.133Z,0.12222222222222222
2023-02-04T06:15:01.558Z,0.2861111111111111
2023-02-04T06:16:01.147Z,0
2023-02-04T06:17:01.139Z,0
2023-02-04T06:18:01.139Z,0
2023-02-04T06:19:04.735Z,0.26944444444444443
2023-02-04T06:20:01.786Z,0.08055555555555555
2023-02-04T06:21:01.361Z,0.2777777777777778
2023-02-04T06:22:02.161Z,0.08055555555555555
2023-02-04T06:23:01.132Z,0
2023-02-04T06:24:06.913Z,0.10833333333333334
2023-02-04T06:25:01.084Z,0.3972222222222222
2023-02-04T06:26:01.089Z,0.15833333333333333
2023-02-04T06:27:01.107Z,0
2023-02-04T06:28:01.167Z,0.19999999999999998
2023-02-04T06:29:08.523Z,0
2023-02-04T06:30:01.113Z,0.03888888888888889
2023-02-04T06:31:01.206Z,0
2023-02-04T06:32:01.159Z,0.19999999999999998
2023-02-04T06:33:01.200Z,0
2023-02-04T06:34:11.914Z,0.08611111111111111
2023-02-04T06:35:01.044Z,0.08055555555555555
2023-02-04T06:36:01.177Z,0
2023-02-04T06:37:01.151Z,0.3972222222222222
2023-02-04T06:38:01.071Z,0.11944444444444444
2023-02-04T06:39:09.611Z,0.05277777777777778
2023-02-04T06:40:01.049Z,0.15833333333333333
2023-02-04T06:41:01.073Z,0.15833333333333333
2023-02-04T06:42:01.144Z,0.19999999999999998
2023-02-04T06:43:01.153Z,0.2777777777777778
2023-02-04T06:44:16.850Z,0.011111111111111112
2023-02-04T06:45:01.438Z,0.11111111111111112
2023-02-04T06:46:01.895Z,0.2777777777777778
2023-02-04T06:47:01.118Z,0.15833333333333333
2023-02-04T06:48:01.128Z,0.11944444444444444
2023-02-04T06:49:00.820Z,0
2023-02-04T06:50:01.143Z,0.7138888888888888
2023-02-04T06:51:01.577Z,0.31666666666666665
2023-02-04T06:52:02.156Z,0
2023-02-04T06:53:01.180Z,0.31666666666666665
2023-02-04T06:54:01.150Z,0.4361111111111111
2023-02-04T06:55:01.220Z,0
2023-02-04T06:56:01.793Z,0.19999999999999998
2023-02-04T06:57:04.513Z,0.31666666666666665
2023-02-04T06:58:02.203Z,0.2777777777777778
2023-02-04T06:59:03.300Z,0
2023-02-04T07:00:02.150Z,0.22222222222222224
2023-02-04T07:01:01.218Z,0.03888888888888889
2023-02-04T07:02:01.928Z,0.47777777777777775
2023-02-04T07:03:02.132Z,0.2777777777777778
2023-02-04T07:04:01.143Z,0
2023-02-04T07:05:01.056Z,0.26666666666666666
2023-02-04T07:06:01.178Z,0.03888888888888889
2023-02-04T07:07:02.230Z,0.6194444444444445
2023-02-04T07:08:01.152Z,0.11944444444444444
2023-02-04T07:09:00.865Z,0.15833333333333333
2023-02-04T07:10:01.161Z,0.23888888888888887
2023-02-04T07:11:01.058Z,0.11944444444444444
2023-02-04T07:12:01.072Z,0.19999999999999998
2023-02-04T07:13:01.224Z,0.08055555555555555
2023-02-04T07:14:01.287Z,0.19999999999999998
2023-02-04T07:15:02.885Z,0
2023-02-04T07:16:02.157Z,0
2023-02-04T07:17:01.112Z,0
2023-02-04T07:18:01.119Z,0
2023-02-04T07:19:01.396Z,0
2023-02-04T07:20:03.900Z,0
2023-02-04T07:21:02.865Z,0.08055555555555555
2023-02-04T07:22:01.743Z,0.03888888888888889
2023-02-04T07:23:01.434Z,0
2023-02-04T07:24:02.029Z,0.31666666666666665
2023-02-04T07:25:01.776Z,0.2111111111111111
2023-02-04T07:26:01.332Z,0.35833333333333334
2023-02-04T07:27:02.667Z,0.18611111111111112
2023-02-04T07:28:02.821Z,0
2023-02-04T07:29:01.550Z,0.11944444444444444
2023-02-04T07:30:01.176Z,0
2023-02-04T07:31:01.241Z,0.35833333333333334
2023-02-04T07:32:02.698Z,0
2023-02-04T07:33:01.105Z,0
2023-02-04T07:34:01.128Z,0
2023-02-04T07:35:00.747Z,0.26944444444444443
2023-02-04T07:36:00.501Z,0.03888888888888889
2023-02-04T07:37:00.329Z,0.15833333333333333
2023-02-04T07:37:59.992Z,0.03888888888888889
2023-02-04T07:38:59.603Z,0.35833333333333334
2023-02-04T07:40:01.166Z,0.3972222222222222
2023-02-04T07:41:01.154Z,0.15833333333333333
2023-02-04T07:42:01.225Z,0
2023-02-04T07:43:01.670Z,0.10555555555555556
2023-02-04T07:44:01.068Z,0.19999999999999998
2023-02-04T07:45:01.251Z,0.41944444444444445
2023-02-04T07:46:02.087Z,0
2023-02-04T07:47:01.102Z,0
2023-02-04T07:48:01.105Z,0.35833333333333334
2023-02-04T07:49:01.134Z,0.08055555555555555
2023-02-04T07:50:00.819Z,0.011111111111111112
2023-02-04T07:51:00.751Z,0
2023-02-04T07:52:00.409Z,0
2023-02-04T07:53:00.120Z,0.23888888888888887
2023-02-04T07:53:59.770Z,0.23888888888888887
2023-02-04T07:55:01.438Z,0.26944444444444443
2023-02-04T07:56:02.662Z,0.2777777777777778
2023-02-04T07:57:01.276Z,0.08055555555555555
2023-02-04T07:58:02.573Z,0.5555555555555556
2023-02-04T07:59:08.092Z,0.47777777777777775
2023-02-04T08:00:01.269Z,0.22222222222222224
2023-02-04T08:01:02.317Z,0.08055555555555555
2023-02-04T08:02:01.055Z,0.31666666666666665
2023-02-04T08:03:01.869Z,0.11944444444444444
2023-02-04T08:04:01.121Z,0.3972222222222222
2023-02-04T08:05:03.692Z,0.4555555555555555
2023-02-04T08:06:01.770Z,0.5972222222222222
2023-02-04T08:07:01.102Z,0.675
2023-02-04T08:08:01.097Z,0.15833333333333333
2023-02-04T08:09:01.101Z,0.31666666666666665
2023-02-04T08:10:05.751Z,0.5555555555555556
2023-02-04T08:11:01.122Z,0.19999999999999998
2023-02-04T08:12:01.140Z,0.35833333333333334
2023-02-04T08:13:01.881Z,0.08055555555555555
2023-02-04T08:14:01.445Z,0.2777777777777778
2023-02-04T08:15:09.471Z,0.4305555555555556
2023-02-04T08:16:01.070Z,0.15833333333333333
2023-02-04T08:17:01.780Z,0.23888888888888887
2023-02-04T08:18:01.132Z,0.4361111111111111
2023-02-04T08:19:02.943Z,0.08055555555555555
2023-02-04T08:20:12.516Z,0.3805555555555556
2023-02-04T08:21:01.102Z,0.3972222222222222
2023-02-04T08:22:01.118Z,0.2777777777777778
2023-02-04T08:23:01.093Z,0.47777777777777775
2023-02-04T08:24:01.084Z,0
2023-02-04T08:25:15.338Z,0.36944444444444446
2023-02-04T08:26:01.474Z,0.7555555555555555
2023-02-04T08:27:01.550Z,0.2916666666666667
2023-02-04T08:28:01.272Z,0.11944444444444444
2023-02-04T08:29:01.122Z,0.31666666666666665
2023-02-04T08:30:00.739Z,0.5555555555555556
2023-02-04T08:31:01.246Z,0.31666666666666665
2023-02-04T08:32:02.602Z,0.11944444444444444
2023-02-04T08:33:01.722Z,0.5555555555555556
2023-02-04T08:34:01.078Z,0.23888888888888887
2023-02-04T08:35:01.048Z,0.19999999999999998
2023-02-04T08:36:01.178Z,0.2777777777777778
2023-02-04T08:37:01.423Z,0.2888888888888889
2023-02-04T08:38:02.218Z,0.31388888888888883
2023-02-04T08:39:01.578Z,0
2023-02-04T08:40:02.022Z,0.31666666666666665
2023-02-04T08:41:02.696Z,0.4361111111111111
2023-02-04T08:42:01.185Z,0.11944444444444444
2023-02-04T08:43:01.153Z,0.23888888888888887
2023-02-04T08:44:01.119Z,0.15833333333333333
2023-02-04T08:45:01.125Z,0.08055555555555555
2023-02-04T08:46:01.165Z,0.31666666666666665
2023-02-04T08:47:01.556Z,0.25555555555555554
2023-02-04T08:48:01.049Z,0.19999999999999998
2023-02-04T08:49:01.058Z,0.19999999999999998
2023-02-04T08:50:01.475Z,0.15833333333333333
2023-02-04T08:51:01.086Z,0.11944444444444444
2023-02-04T08:52:01.101Z,0.47777777777777775
2023-02-04T08:53:01.089Z,0.15833333333333333
2023-02-04T08:54:01.138Z,0.35833333333333334
2023-02-04T08:55:01.126Z,0.3972222222222222
2023-02-04T08:56:01.492Z,0.07222222222222223
2023-02-04T08:57:01.137Z,0.31666666666666665
2023-02-04T08:58:01.243Z,0.35833333333333334
2023-02-04T08:59:01.130Z,0.35833333333333334
2023-02-04T09:00:01.170Z,0.8333333333333333
2023-02-04T09:01:01.205Z,0.19999999999999998
2023-02-04T09:02:01.263Z,0.2777777777777778
2023-02-04T09:03:01.961Z,0.2777777777777778
2023-02-04T09:04:01.242Z,0.6361111111111111
2023-02-04T09:05:01.308Z,0.2777777777777778
2023-02-04T09:06:02.210Z,0.3666666666666667
2023-02-04T09:07:01.087Z,0.08055555555555555
2023-02-04T09:08:01.098Z,0.19999999999999998
2023-02-04T09:09:03.819Z,0.19999999999999998
2023-02-04T09:10:01.505Z,0.2777777777777778
2023-02-04T09:11:01.128Z,0.11944444444444444
2023-02-04T09:12:01.089Z,0.11944444444444444
2023-02-04T09:13:01.101Z,0.03888888888888889
2023-02-04T09:14:01.125Z,0.3972222222222222
2023-02-04T09:15:01.148Z,0.03888888888888889
2023-02-04T09:16:03.942Z,0.3972222222222222
2023-02-04T09:17:02.183Z,0.23888888888888887
2023-02-04T09:18:01.968Z,0.23888888888888887
2023-02-04T09:19:01.180Z,0.31666666666666665
2023-02-04T09:20:01.178Z,0.11944444444444444